createdAt,value
2017-03-10T15:00:33.728Z,14.78
2017-03-10T15:01:24.483Z,14.82
2017-03-10T15:02:18.431Z,14.89
2017-03-10T15:03:10.129Z,14.77
2017-03-10T15:56:05.948Z,13.83
2017-03-10T15:57:08.059Z,13.83
2017-03-10T15:59:18.533Z,13.79
2017-03-10T16:01:03.045Z,13.64
2017-03-10T16:01:53.710Z,13.62
2017-03-10T16:04:26.315Z,13.4
2017-03-10T16:10:22.308Z,13.03
2017-03-10T16:11:02.816Z,12.95
2017-03-10T16:11:43.248Z,12.78
2017-03-10T16:12:23.661Z,12.68
2017-03-10T16:13:04.115Z,12.63
2017-03-10T16:13:44.444Z,12.68
2017-03-10T16:14:24.863Z,12.61
2017-03-10T16:15:05.269Z,12.58
2017-03-10T16:15:45.656Z,12.61
2017-03-10T16:16:26.077Z,12.63
2017-03-10T16:17:06.513Z,12.53
2017-03-10T16:17:46.929Z,12.48
2017-03-10T16:18:27.322Z,12.48
2017-03-10T16:19:07.768Z,12.48
2017-03-10T16:19:48.124Z,12.51
2017-03-10T16:20:28.578Z,12.53
2017-03-10T16:21:08.990Z,12.58
2017-03-10T16:21:49.389Z,12.55
2017-03-10T16:22:29.827Z,12.53
2017-03-10T16:23:10.200Z,12.48
2017-03-10T16:23:50.605Z,12.55
2017-03-10T16:24:31.030Z,12.51
2017-03-10T16:25:11.464Z,12.51
2017-03-10T16:25:51.937Z,12.47
2017-03-10T16:26:32.310Z,12.39
2017-03-10T16:27:12.789Z,12.48
2017-03-10T16:27:53.233Z,12.48
2017-03-10T16:28:33.627Z,12.51
2017-03-10T16:29:14.068Z,12.39
2017-03-10T16:29:54.534Z,12.44
2017-03-10T16:30:34.995Z,12.23
2017-03-10T16:31:15.430Z,12.32
2017-03-10T16:31:55.841Z,12.33
2017-03-10T16:32:36.268Z,12.18
2017-03-10T16:33:16.716Z,12.26
2017-03-10T16:33:57.133Z,12.25
2017-03-10T16:34:37.539Z,12.18
2017-03-10T16:35:17.965Z,12.03
2017-03-10T16:35:58.397Z,12.14
2017-03-10T16:36:38.771Z,12.02
2017-03-10T16:37:19.205Z,12.12
2017-03-10T16:37:59.615Z,12.03
2017-03-10T16:38:40.076Z,12.03
2017-03-10T16:39:20.451Z,12.02
2017-03-10T16:40:00.862Z,11.95
2017-03-10T16:40:41.281Z,11.95
2017-03-10T16:41:21.682Z,11.86
2017-03-10T16:42:02.058Z,11.8
2017-03-10T16:42:42.476Z,11.73
2017-03-10T16:43:22.897Z,11.68
2017-03-10T16:44:03.294Z,11.67
2017-03-10T16:44:46.281Z,11.49
2017-03-10T16:45:26.683Z,11.51
2017-03-10T16:46:07.072Z,11.4
2017-03-10T16:46:47.519Z,11.31
2017-03-10T16:47:27.900Z,11.26
2017-03-10T16:48:08.358Z,11.22
2017-03-10T16:48:51.704Z,11.18
2017-03-10T16:49:32.073Z,11.08
2017-03-10T16:50:12.508Z,11.12
2017-03-10T16:50:53.190Z,11.02
2017-03-10T16:51:33.911Z,10.9
2017-03-10T16:52:14.254Z,10.98
2017-03-10T16:52:54.751Z,10.95
2017-03-10T16:53:35.152Z,10.9
2017-03-10T16:54:15.914Z,10.79
2017-03-10T16:54:56.257Z,10.68
2017-03-10T16:55:36.827Z,10.76
2017-03-10T16:56:17.302Z,10.72
2017-03-10T16:56:57.748Z,10.69
2017-03-10T16:57:38.376Z,10.69
2017-03-10T16:58:18.898Z,10.72
2017-03-10T16:58:59.357Z,10.69
2017-03-10T16:59:40.013Z,10.71
2017-03-10T17:00:20.536Z,10.67
2017-03-10T17:01:01.076Z,10.62
2017-03-10T17:01:41.657Z,10.57
2017-03-10T17:02:22.237Z,10.59
2017-03-10T17:03:03.148Z,10.46
2017-03-10T17:03:43.873Z,10.51
2017-03-10T17:04:24.342Z,10.48
2017-03-10T17:05:04.913Z,10.43
2017-03-10T17:05:45.435Z,10.46
2017-03-10T17:06:26.631Z,10.46
2017-03-10T17:07:07.197Z,10.42
2017-03-10T17:07:47.759Z,10.42
2017-03-10T17:08:28.446Z,10.38
2017-03-10T17:09:08.881Z,10.31
2017-03-10T17:09:49.283Z,10.3
2017-03-10T17:10:29.872Z,10.33
2017-03-10T17:11:10.169Z,10.25
2017-03-10T17:11:50.694Z,10.3
2017-03-10T17:12:31.011Z,10.25
2017-03-10T17:13:11.591Z,10.21
2017-03-10T17:13:52.089Z,10.21
2017-03-10T17:14:32.352Z,10.18
2017-03-10T17:15:12.908Z,10.12
2017-03-10T17:15:53.324Z,10
2017-03-10T17:16:33.717Z,10.09
2017-03-10T17:17:14.161Z,10.06
2017-03-10T17:17:54.540Z,10.05
2017-03-10T17:18:34.969Z,10
2017-03-10T17:19:15.365Z,9.91
2017-03-10T17:19:55.722Z,9.95
2017-03-10T17:20:36.164Z,9.88
2017-03-10T17:21:16.613Z,9.84
2017-03-10T17:21:57.488Z,9.74
2017-03-10T17:22:38.040Z,9.81
2017-03-10T17:23:18.310Z,9.8
2017-03-10T17:23:59.317Z,9.74
2017-03-10T17:24:39.855Z,9.73
2017-03-10T17:25:20.300Z,9.76
2017-03-10T17:26:00.727Z,9.72
2017-03-10T17:26:41.135Z,9.63
2017-03-10T17:27:21.538Z,9.58
2017-03-10T17:28:01.890Z,9.52
2017-03-10T17:28:42.378Z,9.54
2017-03-10T17:29:22.779Z,9.45
2017-03-10T17:30:03.220Z,9.45
2017-03-10T17:30:43.829Z,9.37
2017-03-10T17:31:24.041Z,9.31
2017-03-10T17:32:07.440Z,9.3
2017-03-10T17:32:47.896Z,9.13
2017-03-10T17:33:28.317Z,9.03
2017-03-10T17:34:08.737Z,8.97
2017-03-10T17:34:49.170Z,8.96
2017-03-10T17:35:29.535Z,8.87
2017-03-10T17:36:09.992Z,8.82
2017-03-10T17:36:50.433Z,8.81
2017-03-10T17:37:30.799Z,8.74
2017-03-10T17:38:11.250Z,8.57
2017-03-10T17:38:51.651Z,8.57
2017-03-10T17:39:32.070Z,8.56
2017-03-10T17:40:12.491Z,8.56
2017-03-10T17:40:52.875Z,8.44
2017-03-10T17:41:33.279Z,8.38
2017-03-10T17:42:13.743Z,8.45
2017-03-10T17:42:54.179Z,8.39
2017-03-10T17:43:34.622Z,8.42
2017-03-10T17:44:15.072Z,8.36
2017-03-10T17:44:55.422Z,8.38
2017-03-10T17:45:35.805Z,8.31
2017-03-10T17:46:16.260Z,8.28
2017-03-10T17:46:56.694Z,8.31
2017-03-10T17:47:37.123Z,8.27
2017-03-10T17:48:17.537Z,8.18
2017-03-10T17:48:57.990Z,8.2
2017-03-10T17:49:38.451Z,8.23
2017-03-10T17:50:18.849Z,8.16
2017-03-10T17:50:59.250Z,8.02
2017-03-10T17:51:39.613Z,8.08
2017-03-10T17:52:20.061Z,8.05
2017-03-10T17:53:00.466Z,7.99
2017-03-10T17:53:40.851Z,7.87
2017-03-10T17:54:22.062Z,7.99
2017-03-10T17:55:02.514Z,7.91
2017-03-10T17:55:42.936Z,7.84
2017-03-10T17:56:23.250Z,7.93
2017-03-10T17:57:03.675Z,7.77
2017-03-10T17:57:44.092Z,7.75
2017-03-10T17:58:24.531Z,7.77
2017-03-10T17:59:04.877Z,7.7
2017-03-10T17:59:45.346Z,7.66
2017-03-10T18:00:25.737Z,7.58
2017-03-10T18:01:06.156Z,7.48
2017-03-10T18:01:46.612Z,7.48
2017-03-10T18:02:27.047Z,7.43
2017-03-10T18:03:07.435Z,7.47
2017-03-10T18:03:47.937Z,7.32
2017-03-10T18:04:28.290Z,7.32
2017-03-10T18:05:09.341Z,7.25
2017-03-10T18:05:49.739Z,7.28
2017-03-10T18:06:30.256Z,7.28
2017-03-10T18:07:10.616Z,7.26
2017-03-10T18:07:51.071Z,7.21
2017-03-10T18:08:31.488Z,7.18
2017-03-10T18:09:11.902Z,7.22
2017-03-10T18:09:52.317Z,7.08
2017-03-10T18:10:32.709Z,7.05
2017-03-10T18:11:13.117Z,7
2017-03-10T18:11:53.472Z,7.1
2017-03-10T18:12:33.938Z,7.05
2017-03-10T18:13:14.324Z,7.04
2017-03-10T18:13:54.801Z,7.07
2017-03-10T18:14:35.172Z,7.04
2017-03-10T18:15:15.649Z,6.93
2017-03-10T18:15:56.080Z,7.01
2017-03-10T18:16:36.520Z,7
2017-03-10T18:17:16.908Z,6.92
2017-03-10T18:17:57.292Z,6.9
2017-03-10T18:18:37.706Z,6.83
2017-03-10T18:19:18.128Z,6.87
2017-03-10T18:19:58.546Z,6.72
2017-03-10T18:20:38.965Z,6.77
2017-03-10T18:21:19.372Z,6.75
2017-03-10T18:21:59.774Z,6.68
2017-03-10T18:22:40.221Z,6.72
2017-03-10T18:23:21.376Z,6.57
2017-03-10T18:24:01.749Z,6.56
2017-03-10T18:24:42.149Z,6.59
2017-03-10T18:25:22.543Z,6.6
2017-03-10T18:26:03.071Z,6.62
2017-03-10T18:26:43.423Z,6.62
2017-03-10T18:27:23.870Z,6.56
2017-03-10T18:28:04.240Z,6.65
2017-03-10T18:28:44.656Z,6.67
2017-03-10T18:29:25.078Z,6.65
2017-03-10T18:30:05.462Z,6.59
2017-03-10T18:30:45.871Z,6.62
2017-03-10T18:31:26.256Z,6.68
2017-03-10T18:32:06.656Z,6.59
2017-03-10T18:32:47.044Z,6.62
2017-03-10T18:33:27.495Z,6.64
2017-03-10T18:34:07.905Z,6.62
2017-03-10T18:34:48.284Z,6.59
2017-03-10T18:35:28.939Z,6.59
2017-03-10T18:36:11.420Z,6.6
2017-03-10T18:36:51.766Z,6.64
2017-03-10T18:37:32.144Z,6.6
2017-03-10T18:38:12.616Z,6.56
2017-03-10T18:38:53.015Z,6.59
2017-03-10T18:39:33.433Z,6.6
2017-03-10T18:40:13.810Z,6.65
2017-03-10T18:40:54.226Z,6.49
2017-03-10T18:41:34.647Z,6.71
2017-03-10T18:42:15.000Z,6.64
2017-03-10T18:42:55.773Z,6.64
2017-03-10T18:43:36.705Z,6.62
2017-03-10T18:44:16.954Z,6.54
2017-03-10T18:44:57.659Z,6.65
2017-03-10T18:45:38.199Z,6.59
2017-03-10T18:46:18.785Z,6.6
2017-03-10T18:46:59.389Z,6.62
2017-03-10T18:47:40.712Z,6.6
2017-03-10T18:48:21.065Z,6.57
2017-03-10T18:49:02.370Z,6.56
2017-03-10T18:49:42.792Z,6.54
2017-03-10T18:50:23.685Z,6.5
2017-03-10T18:51:04.235Z,6.5
2017-03-10T18:51:44.681Z,6.44
2017-03-10T18:52:25.303Z,6.52
2017-03-10T18:53:06.758Z,6.5
2017-03-10T18:53:48.782Z,6.5
2017-03-10T18:54:29.608Z,6.44
2017-03-10T18:55:11.050Z,6.39
2017-03-10T18:55:50.663Z,6.39
2017-03-10T18:56:31.300Z,6.43
2017-03-10T18:57:11.936Z,6.36
2017-03-10T18:57:53.025Z,6.41
2017-03-10T18:58:33.109Z,6.36
2017-03-10T18:59:14.221Z,6.29
2017-03-10T18:59:55.902Z,6.38
2017-03-10T19:00:35.447Z,6.36
2017-03-10T19:01:16.330Z,6.28
2017-03-10T19:01:57.880Z,6.31
2017-03-10T19:02:39.081Z,6.26
2017-03-10T19:03:20.530Z,6.26
2017-03-10T19:04:01.520Z,6.31
2017-03-10T19:04:41.803Z,6.2
2017-03-10T19:05:22.878Z,6.22
2017-03-10T19:06:04.043Z,6.2
2017-03-10T19:06:44.585Z,6.12
2017-03-10T19:07:26.061Z,6.13
2017-03-10T19:08:08.875Z,6.19
2017-03-10T19:08:50.153Z,6.06
2017-03-10T19:09:31.134Z,5.99
2017-03-10T19:10:11.751Z,6.07
2017-03-10T19:10:52.221Z,5.99
2017-03-10T19:11:32.799Z,6.01
2017-03-10T19:12:14.113Z,5.99
2017-03-10T19:12:54.667Z,5.95
2017-03-10T19:13:35.332Z,5.95
2017-03-10T19:14:15.986Z,5.97
2017-03-10T19:14:56.291Z,5.81
2017-03-10T19:15:36.797Z,5.81
2017-03-10T19:16:17.237Z,5.73
2017-03-10T19:16:58.095Z,5.72
2017-03-10T19:17:38.994Z,5.69
2017-03-10T19:18:19.475Z,5.74
2017-03-10T19:18:59.910Z,5.61
2017-03-10T19:19:40.882Z,5.59
2017-03-10T19:20:21.557Z,5.56
2017-03-10T19:21:01.973Z,5.58
2017-03-10T19:21:42.561Z,5.67
2017-03-10T19:22:23.237Z,5.52
2017-03-10T19:23:03.993Z,5.55
2017-03-10T19:23:45.008Z,5.47
2017-03-10T19:24:25.242Z,5.55
2017-03-10T19:25:05.856Z,5.58
2017-03-10T19:25:46.374Z,5.58
2017-03-10T19:26:27.146Z,5.52
2017-03-10T19:27:07.602Z,5.54
2017-03-10T19:27:48.236Z,5.47
2017-03-10T19:28:28.606Z,5.4
2017-03-10T19:29:09.935Z,5.46
2017-03-10T19:29:50.389Z,5.38
2017-03-10T19:30:31.031Z,5.44
2017-03-10T19:31:11.459Z,5.41
2017-03-10T19:31:51.905Z,5.37
2017-03-10T19:32:32.351Z,5.33
2017-03-10T19:33:12.698Z,5.33
2017-03-10T19:33:53.178Z,5.28
2017-03-10T19:34:33.545Z,5.4
2017-03-10T19:35:13.981Z,5.28
2017-03-10T19:35:54.452Z,5.26
2017-03-10T19:36:34.778Z,5.29
2017-03-10T19:37:15.167Z,5.29
2017-03-10T19:37:55.702Z,5.23
2017-03-10T19:38:36.087Z,5.26
2017-03-10T19:39:16.530Z,5.23
2017-03-10T19:39:56.978Z,5.13
2017-03-10T19:40:37.315Z,5.15
2017-03-10T19:41:17.732Z,5.15
2017-03-10T19:41:58.130Z,5.18
2017-03-10T19:42:38.490Z,5.1
2017-03-10T19:43:18.899Z,5.07
2017-03-10T19:43:59.343Z,5.07
2017-03-10T19:44:39.729Z,5.05
2017-03-10T19:45:20.117Z,5.12
2017-03-10T19:46:00.630Z,5.12
2017-03-10T19:46:41.009Z,5.05
2017-03-10T19:47:21.424Z,5.1
2017-03-10T19:48:01.776Z,5.05
2017-03-10T19:48:42.236Z,5.01
2017-03-10T19:49:22.654Z,4.98
2017-03-10T19:50:03.076Z,4.97
2017-03-10T19:50:43.551Z,4.83
2017-03-10T19:51:24.010Z,4.94
2017-03-10T19:52:04.438Z,4.94
2017-03-10T19:52:46.453Z,4.84
2017-03-10T19:53:26.829Z,4.86
2017-03-10T19:54:08.217Z,4.86
2017-03-10T19:54:48.676Z,4.83
2017-03-10T19:55:29.153Z,4.83
2017-03-10T19:56:09.569Z,4.82
2017-03-10T19:56:49.984Z,4.82
2017-03-10T19:57:30.407Z,4.75
2017-03-10T19:58:10.874Z,4.71
2017-03-10T19:58:51.292Z,4.66
2017-03-10T19:59:31.761Z,4.66
2017-03-10T20:00:13.274Z,4.61
2017-03-10T20:00:53.718Z,4.53
2017-03-10T20:01:34.197Z,4.53
2017-03-10T20:02:14.693Z,4.56
2017-03-10T20:02:55.062Z,4.56
2017-03-10T20:03:35.469Z,4.56
2017-03-10T20:04:15.905Z,4.53
2017-03-10T20:04:56.295Z,4.56
2017-03-10T20:05:37.726Z,4.53
2017-03-10T20:06:18.203Z,4.6
2017-03-10T20:06:58.602Z,4.6
2017-03-10T20:07:39.022Z,4.56
2017-03-10T20:08:19.476Z,4.58
2017-03-10T20:08:59.826Z,4.5
2017-03-10T20:09:40.308Z,4.5
2017-03-10T20:10:20.679Z,4.5
2017-03-10T20:11:01.312Z,4.49
2017-03-10T20:11:41.852Z,4.49
2017-03-10T20:12:22.182Z,4.6
2017-03-10T20:13:02.703Z,4.52
2017-03-10T20:13:43.181Z,4.58
2017-03-10T20:14:23.548Z,4.53
2017-03-10T20:15:04.003Z,4.5
2017-03-10T20:15:44.574Z,4.53
2017-03-10T20:16:24.998Z,4.53
2017-03-10T20:17:05.366Z,4.49
2017-03-10T20:17:45.781Z,4.56
2017-03-10T20:18:26.202Z,4.53
2017-03-10T20:19:06.547Z,4.52
2017-03-10T20:19:47.036Z,4.56
2017-03-10T20:20:27.432Z,4.6
2017-03-10T20:21:07.799Z,4.58
2017-03-10T20:21:48.271Z,4.57
2017-03-10T20:22:28.663Z,4.63
2017-03-10T20:23:09.020Z,4.61
2017-03-10T20:23:49.471Z,4.64
2017-03-10T20:24:29.818Z,4.52
2017-03-10T20:25:10.275Z,4.49
2017-03-10T20:25:50.655Z,4.45
2017-03-10T20:26:31.089Z,4.42
2017-03-10T20:27:11.455Z,4.34
2017-03-10T20:27:51.908Z,4.36
2017-03-10T20:28:32.287Z,4.38
2017-03-10T20:29:12.703Z,4.32
2017-03-10T20:29:53.178Z,4.24
2017-03-10T20:30:33.617Z,4.32
2017-03-10T20:31:14.043Z,4.31
2017-03-10T20:31:54.437Z,4.2
2017-03-10T20:32:35.697Z,4.21
2017-03-10T20:33:16.600Z,4.21
2017-03-10T20:33:57.062Z,4.14
2017-03-10T20:34:37.493Z,4.12
2017-03-10T20:35:17.916Z,4.16
2017-03-10T20:35:58.282Z,4.16
2017-03-10T20:36:41.354Z,4.12
2017-03-10T20:37:21.757Z,4.12
2017-03-10T20:38:02.160Z,4.12
2017-03-10T20:38:42.599Z,4.18
2017-03-10T20:39:22.981Z,4.06
2017-03-10T20:40:03.384Z,3.96
2017-03-10T20:40:43.854Z,3.96
2017-03-10T20:41:24.298Z,3.92
2017-03-10T20:42:04.773Z,3.85
2017-03-10T20:42:45.123Z,3.91
2017-03-10T20:43:25.534Z,3.85
2017-03-10T20:44:05.994Z,3.82
2017-03-10T20:44:46.413Z,3.84
2017-03-10T20:45:26.797Z,3.73
2017-03-10T20:46:07.135Z,3.85
2017-03-10T20:46:47.584Z,3.84
2017-03-10T20:47:28.019Z,3.91
2017-03-10T20:48:08.402Z,3.82
2017-03-10T20:48:48.799Z,3.77
2017-03-10T20:49:29.274Z,3.77
2017-03-10T20:50:09.720Z,3.74
2017-03-10T20:50:50.233Z,3.77
2017-03-10T20:51:30.562Z,3.78
2017-03-10T20:52:10.982Z,3.84
2017-03-10T20:52:51.405Z,3.78
2017-03-10T20:53:31.826Z,3.68
2017-03-10T20:54:12.506Z,3.63
2017-03-10T20:54:52.706Z,3.73
2017-03-10T20:55:33.154Z,3.68
2017-03-10T20:56:13.741Z,3.61
2017-03-10T20:56:54.150Z,3.66
2017-03-10T20:57:34.660Z,3.61
2017-03-10T20:58:15.078Z,3.55
2017-03-10T20:58:56.302Z,3.53
2017-03-10T20:59:36.754Z,3.53
2017-03-10T21:00:17.702Z,3.49
2017-03-10T21:00:58.105Z,3.37
2017-03-10T21:01:38.560Z,3.45
2017-03-10T21:02:18.937Z,3.45
2017-03-10T21:02:59.487Z,3.4
2017-03-10T21:03:39.902Z,3.56
2017-03-10T21:04:20.349Z,3.52
2017-03-10T21:05:00.899Z,3.63
2017-03-10T21:05:41.327Z,3.55
2017-03-10T21:06:21.828Z,3.5
2017-03-10T21:07:02.306Z,3.53
2017-03-10T21:07:42.750Z,3.37
2017-03-10T21:08:23.138Z,3.4
2017-03-10T21:09:03.496Z,3.41
2017-03-10T21:09:43.944Z,3.36
2017-03-10T21:10:24.645Z,3.24
2017-03-10T21:11:05.033Z,3.27
2017-03-10T21:11:45.460Z,3.31
2017-03-10T21:12:25.892Z,3.31
2017-03-10T21:13:06.254Z,3.24
2017-03-10T21:13:46.712Z,3.26
2017-03-10T21:14:27.103Z,3.24
2017-03-10T21:15:07.549Z,3.18
2017-03-10T21:15:48.007Z,3.15
2017-03-10T21:16:28.383Z,3.15
2017-03-10T21:17:09.448Z,3.16
2017-03-10T21:17:49.856Z,3.15
2017-03-10T21:18:30.406Z,3.01
2017-03-10T21:19:10.802Z,3.19
2017-03-10T21:19:51.454Z,3.11
2017-03-10T21:20:32.025Z,3.03
2017-03-10T21:21:12.393Z,3.12
2017-03-10T21:21:52.853Z,3.08
2017-03-10T21:22:33.202Z,3.12
2017-03-10T21:23:14.470Z,3.12
2017-03-10T21:23:54.908Z,3.08
2017-03-10T21:24:35.264Z,3.08
2017-03-10T21:25:15.761Z,3.12
2017-03-10T21:25:56.208Z,3.09
2017-03-10T21:26:36.622Z,3
2017-03-10T21:27:17.120Z,3
2017-03-10T21:27:57.726Z,3
2017-03-10T21:28:38.141Z,3.03
2017-03-10T21:29:18.564Z,3.01
2017-03-10T21:29:58.949Z,3.01
2017-03-10T21:30:40.013Z,3.03
2017-03-10T21:31:20.726Z,3.01
2017-03-10T21:32:02.042Z,3.03
2017-03-10T21:32:42.855Z,3.06
2017-03-10T21:33:23.243Z,3.16
2017-03-10T21:34:03.959Z,3.08
2017-03-10T21:34:44.696Z,3.05
2017-03-10T21:35:25.300Z,3.12
2017-03-10T21:36:05.699Z,3.03
2017-03-10T21:36:46.142Z,3.08
2017-03-10T21:37:26.546Z,3.09
2017-03-10T21:38:07.673Z,3.03
2017-03-10T21:38:48.105Z,2.98
2017-03-10T21:39:28.460Z,3.01
2017-03-10T21:40:08.867Z,2.97
2017-03-10T21:40:49.536Z,2.98
2017-03-10T21:41:29.791Z,3.03
2017-03-10T21:42:10.263Z,3
2017-03-10T21:42:50.691Z,2.98
2017-03-10T21:43:31.096Z,3.05
2017-03-10T21:44:11.519Z,3.03
2017-03-10T21:44:52.723Z,3.16
2017-03-10T21:45:33.616Z,3.08
2017-03-10T21:46:14.021Z,3.09
2017-03-10T21:46:54.427Z,3.06
2017-03-10T21:47:35.122Z,3.05
2017-03-10T21:48:15.606Z,3
2017-03-10T21:48:56.309Z,2.79
2017-03-10T21:49:36.839Z,2.91
2017-03-10T21:50:17.237Z,2.85
2017-03-10T21:50:57.735Z,2.97
2017-03-10T21:51:38.326Z,2.88
2017-03-10T21:52:18.868Z,2.82
2017-03-10T21:52:59.917Z,2.88
2017-03-10T21:53:40.749Z,2.82
2017-03-10T21:54:22.223Z,2.91
2017-03-10T21:55:03.787Z,2.97
2017-03-10T21:55:44.233Z,2.85
2017-03-10T21:56:24.708Z,2.9
2017-03-10T21:57:05.229Z,2.93
2017-03-10T21:57:45.625Z,2.9
2017-03-10T21:58:26.480Z,2.91
2017-03-10T21:59:06.934Z,2.91
2017-03-10T21:59:47.440Z,2.79
2017-03-10T22:00:28.393Z,2.79
2017-03-10T22:01:08.751Z,2.79
2017-03-10T22:01:50.443Z,2.72
2017-03-10T22:02:31.618Z,2.8
2017-03-10T22:03:12.034Z,2.73
2017-03-10T22:03:53.907Z,2.76
2017-03-10T22:04:34.377Z,2.72
2017-03-10T22:05:14.720Z,2.73
2017-03-10T22:05:55.109Z,2.77
2017-03-10T22:06:35.533Z,2.72
2017-03-10T22:07:16.012Z,2.79
2017-03-10T22:07:56.693Z,2.77
2017-03-10T22:08:37.047Z,2.79
2017-03-10T22:09:17.490Z,2.77
2017-03-10T22:09:57.877Z,2.76
2017-03-10T22:10:38.289Z,2.68
2017-03-10T22:11:18.833Z,2.68
2017-03-10T22:11:59.199Z,2.7
2017-03-10T22:12:40.735Z,2.7
2017-03-10T22:13:21.970Z,2.68
2017-03-10T22:14:03.980Z,2.64
2017-03-10T22:14:46.340Z,2.62
2017-03-10T22:15:27.973Z,2.62
2017-03-10T22:16:07.229Z,2.64
2017-03-10T22:16:47.874Z,2.68
2017-03-10T22:17:28.799Z,2.68
2017-03-10T22:18:09.339Z,2.83
2017-03-10T22:18:49.673Z,2.79
2017-03-10T22:19:30.085Z,2.82
2017-03-10T22:20:12.594Z,2.76
2017-03-10T22:20:51.081Z,2.72
2017-03-10T22:21:31.523Z,2.75
2017-03-10T22:22:12.534Z,2.79
2017-03-10T22:22:53.664Z,2.77
2017-03-10T22:23:34.275Z,2.76
2017-03-10T22:24:14.727Z,2.8
2017-03-10T22:24:55.877Z,2.73
2017-03-10T22:25:37.260Z,2.7
2017-03-10T22:26:17.639Z,2.7
2017-03-10T22:26:58.005Z,2.75
2017-03-10T22:27:38.408Z,2.8
2017-03-10T22:28:19.795Z,2.76
2017-03-10T22:29:00.221Z,2.79
2017-03-10T22:29:40.597Z,2.8
2017-03-10T22:30:21.610Z,2.79
2017-03-10T22:31:01.980Z,2.72
2017-03-10T22:31:42.375Z,2.83
2017-03-10T22:32:22.788Z,2.73
2017-03-10T22:33:03.430Z,2.8
2017-03-10T22:33:43.907Z,2.77
2017-03-10T22:34:24.298Z,2.76
2017-03-10T22:35:04.762Z,2.77
2017-03-10T22:35:45.189Z,2.82
2017-03-10T22:36:26.657Z,2.76
2017-03-10T22:37:06.269Z,2.76
2017-03-10T22:37:46.732Z,2.77
2017-03-10T22:38:27.139Z,2.8
2017-03-10T22:39:07.580Z,2.76
2017-03-10T22:39:48.071Z,2.88
2017-03-10T22:40:28.851Z,2.95
2017-03-10T22:41:09.646Z,2.91
2017-03-10T22:41:50.036Z,2.95
2017-03-10T22:42:31.079Z,2.97
2017-03-10T22:43:11.491Z,2.88
2017-03-10T22:43:51.908Z,2.9
2017-03-10T22:44:32.405Z,2.93
2017-03-10T22:45:12.854Z,2.93
2017-03-10T22:45:53.259Z,2.88
2017-03-10T22:46:33.671Z,2.95
2017-03-10T22:47:14.488Z,2.85
2017-03-10T22:47:54.540Z,2.95
2017-03-10T22:48:36.086Z,2.88
2017-03-10T22:49:16.453Z,2.93
2017-03-10T22:49:57.485Z,2.94
2017-03-10T22:50:41.139Z,2.93
2017-03-10T22:51:25.256Z,2.91
2017-03-10T22:52:05.415Z,2.93
2017-03-10T22:52:45.872Z,2.87
2017-03-10T22:53:26.237Z,2.9
2017-03-10T22:54:06.674Z,2.91
2017-03-10T22:54:47.104Z,2.87
2017-03-10T22:55:28.283Z,2.91
2017-03-10T22:56:09.459Z,2.91
2017-03-10T22:56:49.879Z,2.98
2017-03-10T22:57:30.287Z,3.03
2017-03-10T22:58:10.695Z,2.98
2017-03-10T22:58:51.112Z,2.97
2017-03-10T22:59:32.521Z,3.03
2017-03-10T23:00:12.980Z,3.05
2017-03-10T23:00:53.344Z,3.05
2017-03-10T23:01:33.751Z,3.12
2017-03-10T23:02:14.192Z,3.12
2017-03-10T23:02:54.757Z,3.11
2017-03-10T23:03:35.294Z,3.15
2017-03-10T23:04:15.760Z,3.19
2017-03-10T23:04:56.141Z,3.24
2017-03-10T23:05:37.104Z,3.27
2017-03-10T23:06:17.481Z,3.3
2017-03-10T23:06:57.901Z,3.41
2017-03-10T23:07:38.537Z,3.41
2017-03-10T23:08:18.988Z,3.45
2017-03-10T23:08:59.407Z,3.41
2017-03-10T23:09:39.825Z,3.45
2017-03-10T23:10:20.232Z,3.49
2017-03-10T23:11:00.664Z,3.52
2017-03-10T23:11:41.104Z,3.59
2017-03-10T23:12:21.524Z,3.5
2017-03-10T23:13:01.896Z,3.48
2017-03-10T23:13:42.315Z,3.48
2017-03-10T23:14:22.707Z,3.41
2017-03-10T23:15:03.126Z,3.43
2017-03-10T23:15:43.541Z,3.4
2017-03-10T23:16:23.902Z,3.34
2017-03-10T23:17:04.292Z,3.37
2017-03-10T23:17:44.750Z,3.27
2017-03-10T23:18:25.191Z,3.19
2017-03-10T23:19:05.547Z,3.27
2017-03-10T23:19:45.993Z,3.24
2017-03-10T23:20:26.416Z,3.08
2017-03-10T23:21:06.814Z,3.09
2017-03-10T23:21:47.193Z,3.13
2017-03-10T23:22:27.635Z,3.08
2017-03-10T23:23:08.001Z,3.15
2017-03-10T23:23:48.415Z,3.09
2017-03-10T23:24:28.883Z,3.15
2017-03-10T23:25:09.292Z,3.15
2017-03-10T23:25:49.685Z,3.09
2017-03-10T23:26:30.120Z,3.08
2017-03-10T23:27:10.527Z,3.09
2017-03-10T23:27:50.971Z,2.91
2017-03-10T23:28:31.353Z,2.95
2017-03-10T23:29:11.746Z,3.05
2017-03-10T23:29:52.163Z,3.05
2017-03-10T23:30:32.692Z,3
2017-03-10T23:31:13.099Z,3
2017-03-10T23:31:53.460Z,3.03
2017-03-10T23:32:33.876Z,2.97
2017-03-10T23:33:14.310Z,2.87
2017-03-10T23:33:55.223Z,2.91
2017-03-10T23:34:35.602Z,2.91
2017-03-10T23:35:15.984Z,2.87
2017-03-10T23:35:57.626Z,2.93
2017-03-10T23:36:41.601Z,2.76
2017-03-10T23:37:22.086Z,2.77
2017-03-10T23:38:02.434Z,2.8
2017-03-10T23:38:42.827Z,2.77
2017-03-10T23:39:23.268Z,2.75
2017-03-10T23:40:03.659Z,2.7
2017-03-10T23:40:44.141Z,2.72
2017-03-10T23:41:24.559Z,2.73
2017-03-10T23:42:05.002Z,2.64
2017-03-10T23:42:45.382Z,2.69
2017-03-10T23:43:25.763Z,2.54
2017-03-10T23:44:06.188Z,2.55
2017-03-10T23:44:46.635Z,2.61
2017-03-10T23:45:27.102Z,2.59
2017-03-10T23:46:08.133Z,2.55
2017-03-10T23:46:48.589Z,2.55
2017-03-10T23:47:29.007Z,2.55
2017-03-10T23:48:09.490Z,2.58
2017-03-10T23:48:49.917Z,2.55
2017-03-10T23:49:30.340Z,2.57
2017-03-10T23:50:10.806Z,2.62
2017-03-10T23:50:51.279Z,2.55
2017-03-10T23:51:31.683Z,2.61
2017-03-10T23:52:12.126Z,2.61
2017-03-10T23:52:52.548Z,2.58
2017-03-10T23:53:33.019Z,2.54
2017-03-10T23:54:13.409Z,2.54
2017-03-10T23:54:53.800Z,2.52
2017-03-10T23:55:34.184Z,2.51
2017-03-10T23:56:14.608Z,2.5
2017-03-10T23:56:55.024Z,2.39
2017-03-10T23:57:35.468Z,2.47
2017-03-10T23:58:15.926Z,2.47
2017-03-10T23:58:56.345Z,2.58
2017-03-10T23:59:36.735Z,2.51
